Ariel, Washington
Current Conditions -  °F | °C
As of 1:15 PM on Monday 24 Nov 2014 (Local Time) from KKLS Reporting Station
Overcast Overcast  
Wind Chill: 11°   Ceiling: 9500
Heat Index: 11°   Visibility: 10mi
Dew Point:   Wind: 8mph
Humidity: 76%   Direction: 160°SSE
Pressure: 30.32"   Gusts: NA
Location:  45.96°N, 122.57°W
Report Text: KKLS 242115Z 16007KT 10SM OVC095 11/07 A3032 RMK AO1
Loading
Personal Weather Stations






























Interactive Weather Map New forecast layout! Learn more

10-Day Weather Forecast

Advertisements
Track Severe Weather on mobile